KHUF/HUF METAR and TAF weather

Enter ICAO airport designator
Station Type Date Time Source
KHUF METAR 2019/02/22 22:53 UTC NOAA

KHUF 222253Z 07007KT 10SM BKN070 OVC085 05/M01 A3029 RMK AO2 SLP263 T00501011


Station Type Date Time Source
KHUF Decoded METAR 2019/02/22 22:53 UTC NOAA

TERRE HAUTE INTERNATIONAL -HULMAN FLD, IN, United States (KHUF) 39-27N 087-19W 179M
Feb 22, 2019 - 05:53 PM EST / 2019.02.22 2253 UTC
Wind: from the ENE (070 degrees) at 8 MPH (7 KT):0
Visibility: 10 mile(s):0
Sky conditions: overcast
Temperature: 41.0 F (5.0 C)
Dew Point: 30.0 F (-1.1 C)
Relative Humidity: 64%
Pressure (altimeter): 30.29 in. Hg (1025 hPa)
ob: KHUF 222253Z 07007KT 10SM BKN070 OVC085 05/M01 A3029 RMK AO2 SLP263 T00501011
cycle: 23

Station Type Date Time Source
KHUF TAF 2019/02/22 18:22 UTC NOAA

TAF KHUF 221720Z 2218/2318 08008KT P6SM BKN250
FM230900 10008KT P6SM VCSH OVC040
FM231200 10008KT 6SM -SHRA OVC015
FM231400 12008KT 6SM -SHRA OVC008


Example: see airport list